Weather at A L Mangham Jr. Regional Airport

Public forecast

Using degrees Fahrenheit for public forecast. Weather courtesy of forecast.io.

Current aviation weather report (METAR) for A L Mangham Jr. Regional Airport

Retrieved 2020/10/23 10:17 UTC (8 minutes ago):

KOCH 231017Z AUTO 00000KT 6SM BR OVC009 22/21 A2996 RMK AO2 CIG 005V012

Closest aviation forecast (TAF) to A L Mangham Jr. Regional Airport

Closest forecast is Angelina County Airport, 20.8 nm (38.4 km) S. Retrieved 2020/10/23 06:33 UTC (4 hours ago):

TAF KLFK 230531Z 2306/2406 15008KT P6SM SKC FM230700 13004KT P6SM OVC015 FM230900 VRB03KT 4SM BR OVC004 FM231200 12003KT 1/2SM FG OVC007 FM231600 19006KT P6SM VCTS BKN015CB FM231800 30006KT P6SM VCSH OVC050 FM240300 33008KT P6SM OVC050